Time;durP1;ratioP1;P1;durP2;ratioP2;P2;SDS_P1;SDS_P2;PMS_P1;PMS_P2;Temp;Humidity;BMP_temperature;BMP_pressure;BME280_temperature;BME280_humidity;BME280_pressure;Samples;Min_cycle;Max_cycle;Signal;HPM_P1;HPM_P2
2022/08/18 00:00:34;;;;;;;18.45;15.78;;;;;;;22.47;74.30;98227.17;1637323;87;25716;-60
2022/08/18 00:03:07;;;;;;;18.02;16.00;;;;;;;22.48;74.54;98227.98;1636915;87;25979;-60
2022/08/18 00:05:35;;;;;;;19.07;15.48;;;;;;;22.47;74.51;98225.78;1637362;87;25456;-61
2022/08/18 00:08:01;;;;;;;16.90;14.78;;;;;;;22.46;74.45;98233.16;1637032;87;27380;-60
2022/08/18 00:10:28;;;;;;;20.20;16.02;;;;;;;22.42;74.86;98235.37;1636891;87;25547;-61
2022/08/18 00:12:55;;;;;;;17.90;14.78;;;;;;;22.40;74.84;98235.59;1636950;87;25648;-60
2022/08/18 00:15:22;;;;;;;16.77;14.78;;;;;;;22.36;74.87;98227.22;1636912;87;25628;-61
2022/08/18 00:17:48;;;;;;;19.77;15.50;;;;;;;22.33;75.11;98216.09;1637301;87;25643;-60
2022/08/18 00:20:20;;;;;;;17.77;15.48;;;;;;;22.28;75.31;98215.90;1638201;87;27340;-61
2022/08/18 00:22:47;;;;;;;17.77;15.50;;;;;;;22.27;75.34;98217.08;1687431;85;27022;-60
2022/08/18 00:25:18;;;;;;;19.37;16.75;;;;;;;22.25;75.36;98209.73;1687209;84;25617;-62
2022/08/18 00:27:44;;;;;;;;;;;;;;;22.22;75.38;98209.92;1689843;84;25648;-61
2022/08/18 00:30:15;;;;;;;21.57;18.67;;;;;;;22.19;75.32;98213.52;1687846;84;25606;-60
2022/08/18 00:32:50;;;;;;;22.95;18.98;;;;;;;22.15;75.36;98211.34;1649668;86;28215;-60
2022/08/18 00:35:27;;;;;;;22.42;19.32;;;;;;;22.17;75.59;98211.75;1649375;86;25473;-60
2022/08/18 00:37:57;;;;;;;20.90;18.70;;;;;;;22.23;75.29;98213.52;1649388;86;25485;-60
2022/08/18 00:40:28;;;;;;;21.52;18.67;;;;;;;22.22;75.13;98218.29;1649724;87;25723;-60
2022/08/18 00:43:00;;;;;;;23.02;18.00;;;;;;;22.24;75.01;98219.28;1648735;86;25509;-60
2022/08/18 00:45:32;;;;;;;21.10;17.82;;;;;;;22.23;74.92;98217.70;1649926;86;28181;-60
2022/08/18 00:48:00;;;;;;;21.07;17.87;;;;;;;22.19;74.99;98219.09;1649525;86;25472;-61
2022/08/18 00:50:34;;;;;;;18.02;15.10;;;;;;;22.14;74.85;98220.92;1649313;87;25824;-61
2022/08/18 00:53:04;;;;;;;18.20;15.72;;;;;;;21.98;74.86;98215.19;1649643;87;25675;-60
2022/08/18 00:55:31;;;;;;;;;;;;;;;21.89;75.04;98217.59;1652182;86;25702;-60
2022/08/18 00:58:05;;;;;;;17.05;14.65;;;;;;;21.75;75.35;98212.80;1687519;84;26830;-60
2022/08/18 01:00:33;;;;;;;17.00;15.20;;;;;;;21.61;76.02;98215.00;1687437;84;25625;-61
2022/08/18 01:03:04;;;;;;;16.87;14.93;;;;;;;21.46;76.64;98215.61;1687547;84;25630;-61
2022/08/18 01:05:39;;;;;;;21.00;16.07;;;;;;;21.33;76.51;98209.07;1649729;86;26184;-60
2022/08/18 01:08:13;;;;;;;17.50;15.70;;;;;;;21.37;76.58;98204.28;1649417;86;25683;-61
2022/08/18 01:10:40;;;;;;;17.62;14.87;;;;;;;21.40;76.78;98197.11;1636636;87;28480;-61
2022/08/18 01:13:08;;;;;;;22.30;16.42;;;;;;;21.31;77.52;98189.16;1649313;86;25524;-61
2022/08/18 01:15:36;;;;;;;21.17;16.57;;;;;;;21.22;78.63;98192.93;1649374;87;25500;-61
2022/08/18 01:24:04;;;;;;;21.90;16.10;;;;;;;21.10;78.69;98198.30;1640389;87;25735;-60
2022/08/18 01:26:51;;;;;;;19.82;16.77;;;;;;;21.04;78.96;98194.51;1640929;87;25676;-61
2022/08/18 01:29:19;;;;;;;21.70;17.05;;;;;;;21.04;79.05;98197.30;1639516;87;25588;-60
2022/08/18 01:31:54;;;;;;;19.98;17.65;;;;;;;21.07;78.97;98191.52;1639116;87;25880;-61
2022/08/18 01:34:24;;;;;;;19.00;16.87;;;;;;;21.11;79.01;98190.95;1639245;87;25754;-61
2022/08/18 01:36:52;;;;;;;22.45;17.23;;;;;;;21.15;79.09;98176.41;1639726;87;27453;-61
2022/08/18 01:39:19;;;;;;;21.17;17.73;;;;;;;21.11;79.48;98174.23;1639373;87;25744;-61
2022/08/18 01:41:46;;;;;;;20.65;16.32;;;;;;;21.10;79.38;98174.63;1639514;87;25769;-60
2022/08/18 01:44:12;;;;;;;20.92;17.52;;;;;;;21.08;80.04;98166.66;1639327;87;25648;-60
2022/08/18 01:46:41;;;;;;;21.52;18.17;;;;;;;21.05;79.60;98163.28;1639282;87;25759;-61
2022/08/18 01:49:09;;;;;;;19.87;16.77;;;;;;;21.06;79.60;98164.86;1639495;87;27669;-62
2022/08/18 01:51:40;;;;;;;21.05;16.93;;;;;;;21.09;79.48;98168.25;1639379;87;25600;-61
2022/08/18 01:54:04;;;;;;;22.55;17.00;;;;;;;21.07;79.61;98170.63;1657372;86;25477;-60
2022/08/18 01:56:31;;;;;;;21.50;17.60;;;;;;;21.07;79.57;98169.23;1665925;85;26537;-60
2022/08/18 01:58:57;;;;;;;18.62;16.62;;;;;;;21.06;79.47;98171.23;1665894;86;25623;-61
2022/08/18 02:01:24;;;;;;;19.73;16.30;;;;;;;;;;1665786;85;27475;-60
2022/08/18 02:03:58;;;;;;;20.65;17.62;;;;;;;20.96;79.97;98169.84;1666082;86;25720;-60
2022/08/18 02:06:25;;;;;;;18.60;16.48;;;;;;;20.96;79.67;98173.42;1665820;86;25464;-60
2022/08/18 02:08:51;;;;;;;19.67;17.12;;;;;;;20.99;79.55;98176.81;1666013;85;25613;-60
2022/08/18 02:11:18;;;;;;;21.55;17.35;;;;;;;21.03;79.57;98181.78;1665654;85;25694;-60
2022/08/18 02:13:44;;;;;;;21.10;17.98;;;;;;;21.04;79.47;98186.77;1665548;86;27660;-60
2022/08/18 02:16:10;;;;;;;21.35;17.57;;;;;;;21.08;79.50;98190.34;1665636;86;25622;-60
2022/08/18 02:18:37;;;;;;;21.05;17.75;;;;;;;21.10;79.38;98193.51;1665845;85;25468;-60
2022/08/18 02:21:14;;;;;;;19.85;17.17;;;;;;;21.09;79.33;98189.14;1665790;86;26353;-60
2022/08/18 02:23:43;;;;;;;23.27;17.75;;;;;;;21.09;79.32;98185.55;1665665;86;25460;-61
2022/08/18 02:26:14;;;;;;;20.65;17.95;;;;;;;21.05;79.29;98182.78;1665616;86;27503;-61
2022/08/18 02:28:41;;;;;;;22.13;17.00;;;;;;;21.03;79.35;98190.72;1656809;85;25698;-62
2022/08/18 02:31:14;;;;;;;21.68;18.60;;;;;;;;;;1653164;86;25679;-62
2022/08/18 02:33:40;;;;;;;19.75;17.32;;;;;;;21.03;79.63;98201.28;1652448;86;26133;-61
2022/08/18 02:36:08;;;;;;;21.25;18.50;;;;;;;21.06;79.39;98203.27;1653169;86;25440;-61
2022/08/18 02:38:35;;;;;;;20.37;17.98;;;;;;;21.08;79.51;98204.86;1652655;86;27500;-62
2022/08/18 02:41:05;;;;;;;25.90;18.55;;;;;;;21.06;79.44;98209.44;1652615;86;25527;-61
2022/08/18 02:43:32;;;;;;;;;;;;;;;21.05;79.39;98205.87;1655528;86;25692;-61
2022/08/18 02:45:59;;;;;;;22.60;17.77;;;;;;;21.05;79.47;98208.66;1652771;86;25641;-62
2022/08/18 02:48:34;;;;;;;23.60;19.90;;;;;;;21.01;79.38;98202.87;1656240;86;25622;-61
2022/08/18 02:51:08;;;;;;;20.55;18.17;;;;;;;21.00;79.97;98200.67;1645473;87;27491;-62
2022/08/18 02:53:36;;;;;;;22.93;19.35;;;;;;;20.95;80.34;98208.02;1645591;87;25666;-61
2022/08/18 02:56:23;;;;;;;24.65;18.15;;;;;;;20.90;80.16;98208.40;1645576;87;25652;-61
2022/08/18 02:58:53;;;;;;;22.58;18.85;;;;;;;20.87;80.37;98209.96;1645504;87;25511;-61
2022/08/18 03:01:26;;;;;;;22.05;18.15;;;;;;;20.78;80.50;98203.39;1645311;87;25460;-61
2022/08/18 03:03:55;;;;;;;21.73;18.12;;;;;;;20.74;80.81;98208.74;1645726;87;27492;-61
2022/08/18 03:06:24;;;;;;;22.10;18.87;;;;;;;20.66;81.48;98196.20;1645556;87;26100;-61
2022/08/18 03:08:51;;;;;;;23.73;18.73;;;;;;;20.56;82.22;98203.94;1645788;87;25670;-61
2022/08/18 03:11:22;;;;;;;21.20;18.50;;;;;;;20.49;81.85;98200.52;1645420;87;25645;-61
2022/08/18 03:13:49;;;;;;;23.83;19.30;;;;;;;20.52;81.86;98210.09;1645976;87;25456;-61
2022/08/18 03:16:17;;;;;;;22.27;18.65;;;;;;;20.55;81.64;98203.13;1645452;87;27385;-61
2022/08/18 03:18:45;;;;;;;23.83;18.12;;;;;;;20.58;81.38;98204.32;1645638;87;25452;-61
2022/08/18 03:21:18;;;;;;;23.52;19.35;;;;;;;20.58;81.47;98205.71;1645503;87;25782;-60
2022/08/18 03:23:44;;;;;;;21.50;18.77;;;;;;;20.58;81.49;98214.06;1645519;87;26179;-58
2022/08/18 03:26:14;;;;;;;21.55;18.60;;;;;;;20.56;81.65;98206.72;1645371;86;25503;-58
2022/08/18 03:28:44;;;;;;;25.23;19.15;;;;;;;20.52;82.11;98205.92;1645421;86;28488;-58
2022/08/18 03:31:17;;;;;;;22.42;18.85;;;;;;;20.42;82.41;98204.68;1645747;87;25674;-58
2022/08/18 03:33:43;;;;;;;24.37;18.95;;;;;;;20.34;83.83;98208.02;1644238;87;25722;-58
2022/08/18 03:36:13;;;;;;;24.18;18.67;;;;;;;20.23;83.39;98207.97;1645836;87;25705;-59
2022/08/18 03:38:41;;;;;;;;;;;;;;;20.18;83.51;98205.58;1648105;87;25664;-58
2022/08/18 03:41:12;;;;;;;26.55;19.20;;;;;;;20.17;83.51;98212.31;1645411;87;28347;-58
2022/08/18 03:43:40;;;;;;;22.55;19.77;;;;;;;20.17;83.83;98210.92;1645577;87;25607;-58
2022/08/18 03:46:10;;;;;;;25.95;20.25;;;;;;;20.16;83.53;98217.10;1645420;87;25733;-58
2022/08/18 03:48:40;;;;;;;24.70;19.85;;;;;;;20.18;83.44;98205.58;1645520;87;25531;-60
2022/08/18 03:51:10;;;;;;;22.67;20.00;;;;;;;20.14;83.51;98210.31;1645680;87;25699;-60
2022/08/18 03:53:37;;;;;;;25.08;20.57;;;;;;;20.09;83.68;98203.13;1645753;87;27595;-60
2022/08/18 03:56:14;;;;;;;24.75;20.65;;;;;;;20.07;83.84;98206.92;1645309;87;25709;-60
2022/08/18 03:58:39;;;;;;;24.90;19.73;;;;;;;20.10;83.86;98201.97;1652628;86;25459;-60
2022/08/18 04:01:05;;;;;;;23.22;19.90;;;;;;;20.05;84.19;98208.70;1653028;86;25632;-60
2022/08/18 04:03:31;;;;;;;25.50;21.02;;;;;;;20.04;84.41;98216.81;1653313;86;25668;-60
2022/08/18 04:05:57;;;;;;;25.55;20.95;;;;;;;20.05;84.11;98215.65;1653058;86;27435;-60
2022/08/18 04:08:23;;;;;;;25.90;20.57;;;;;;;20.07;84.37;98223.61;1653214;86;25691;-60
2022/08/18 04:10:58;;;;;;;25.77;21.17;;;;;;;20.10;84.28;98217.27;1653037;86;25519;-60
2022/08/18 04:13:24;;;;;;;25.02;20.72;;;;;;;20.12;84.36;98224.61;1653043;86;25632;-61
2022/08/18 04:15:50;;;;;;;27.55;21.05;;;;;;;20.12;84.26;98230.17;1653551;86;25513;-60
2022/08/18 04:18:16;;;;;;;23.35;19.90;;;;;;;20.12;84.28;98232.95;1653171;86;26778;-60
2022/08/18 04:20:43;;;;;;;25.12;20.48;;;;;;;20.19;84.30;98230.81;1653087;86;25935;-61
2022/08/18 04:23:09;;;;;;;23.10;19.98;;;;;;;20.29;84.08;98223.69;1653190;86;25643;-61
2022/08/18 04:25:35;;;;;;;25.23;20.20;;;;;;;20.39;83.77;98229.11;1653046;86;25788;-60
2022/08/18 04:28:02;;;;;;;24.92;19.98;;;;;;;20.48;83.65;98219.00;1655538;85;25766;-62
2022/08/18 04:30:28;;;;;;;24.27;19.95;;;;;;;20.51;83.48;98219.61;1673155;85;27493;-60
2022/08/18 04:32:55;;;;;;;22.62;19.20;;;;;;;20.46;83.92;98220.01;1673062;85;25497;-60
2022/08/18 04:35:22;;;;;;;23.35;19.48;;;;;;;20.44;83.87;98226.75;1672865;85;25630;-60
2022/08/18 04:37:49;;;;;;;25.25;19.98;;;;;;;20.48;84.07;98227.35;1673134;85;25627;-61
2022/08/18 04:40:16;;;;;;;24.12;19.55;;;;;;;20.54;83.89;98222.42;1672914;85;25610;-60
2022/08/18 04:42:42;;;;;;;24.45;19.37;;;;;;;20.65;83.80;98217.48;1673488;85;27554;-60
2022/08/18 04:45:09;;;;;;;23.62;19.27;;;;;;;20.75;83.46;98213.92;1673016;85;25743;-60
2022/08/18 04:47:40;;;;;;;25.02;19.25;;;;;;;20.80;83.17;98216.33;1673166;85;25500;-61
2022/08/18 04:50:10;;;;;;;23.15;18.95;;;;;;;20.92;82.89;98221.34;1673126;85;25586;-60
2022/08/18 04:55:22;;;;;;;24.85;19.25;;;;;;;21.09;82.37;98217.59;1672916;85;27485;-61
2022/08/18 04:57:48;;;;;;;23.57;19.65;;;;;;;21.12;82.31;98216.79;1673357;85;25765;-60
2022/08/18 05:00:16;;;;;;;23.30;19.75;;;;;;;21.26;81.81;98216.02;1673389;85;25495;-61
2022/08/18 05:02:42;;;;;;;21.20;18.77;;;;;;;21.44;81.46;98234.13;1672898;85;25561;-61
2022/08/18 05:05:09;;;;;;;24.80;18.98;;;;;;;21.60;80.92;98224.57;1673257;85;25452;-61
2022/08/18 05:07:36;;;;;;;20.90;18.62;;;;;;;21.75;80.41;98224.77;1673147;85;27432;-61
2022/08/18 05:10:04;;;;;;;22.50;18.20;;;;;;;21.86;79.96;98222.58;1651167;85;25484;-60
2022/08/18 05:12:31;;;;;;;22.13;17.55;;;;;;;21.97;79.09;98227.55;1673253;85;25453;-62
2022/08/18 05:14:58;;;;;;;21.12;17.80;;;;;;;22.04;79.62;98233.10;1673057;85;25638;-61
2022/08/18 05:17:27;;;;;;;24.12;18.30;;;;;;;22.15;78.68;98221.11;1673190;85;25619;-61
2022/08/18 05:19:53;;;;;;;19.85;17.62;;;;;;;22.25;78.62;98227.88;1672597;85;26029;-62
2022/08/18 05:22:19;;;;;;;18.75;16.50;;;;;;;22.35;78.12;98223.44;1673058;85;25508;-61
2022/08/18 05:24:46;;;;;;;20.88;17.40;;;;;;;22.46;77.29;98223.39;1673116;85;25614;-62
2022/08/18 05:27:14;;;;;;;20.55;16.07;;;;;;;22.44;77.17;98220.41;1673014;85;25656;-61
2022/08/18 05:29:41;;;;;;;23.18;16.80;;;;;;;22.46;76.39;98224.20;1659124;85;25456;-60
2022/08/18 05:32:08;;;;;;;21.27;17.30;;;;;;;22.44;76.67;98221.81;1652890;86;27901;-61
2022/08/18 05:34:35;;;;;;;21.10;17.35;;;;;;;22.52;76.74;98224.56;1653031;86;25625;-61
2022/08/18 05:37:16;;;;;;;19.85;16.73;;;;;;;22.55;76.21;98218.98;1653145;86;25694;-61
2022/08/18 05:39:54;;;;;;;18.73;15.35;;;;;;;22.61;76.26;98224.95;1651673;86;26841;-61
2022/08/18 05:42:23;;;;;;;20.62;16.95;;;;;;;22.72;75.68;98219.91;1651625;86;25683;-61
2022/08/18 05:44:53;;;;;;;18.80;16.75;;;;;;;22.68;75.57;98220.72;1653319;86;27394;-61
2022/08/18 05:47:29;;;;;;;20.23;15.63;;;;;;;22.68;75.92;98224.91;1653251;86;25679;-60
2022/08/18 05:50:03;;;;;;;21.00;16.15;;;;;;;22.69;75.67;98225.09;1653269;86;25476;-60
2022/08/18 05:52:38;;;;;;;22.27;16.48;;;;;;;22.69;75.76;98230.68;1651853;86;25711;-60
2022/08/18 05:58:04;;;;;;;;;;;;;;;22.79;75.68;98227.65;1655437;86;25723;-60
2022/08/18 06:00:32;;;;;;;20.02;15.98;;;;;;;22.90;75.86;98216.41;1652914;86;25670;-60
2022/08/18 06:03:15;;;;;;;19.50;17.40;;;;;;;23.09;75.52;98214.89;1653149;86;25711;-61
2022/08/18 06:06:00;;;;;;;20.88;16.00;;;;;;;23.22;75.40;98217.98;1653131;86;25562;-61
2022/08/18 06:08:46;;;;;;;17.73;15.80;;;;;;;23.40;74.46;98210.91;1652664;86;25694;-60
2022/08/18 06:11:12;;;;;;;19.37;14.80;;;;;;;23.53;74.27;98221.77;1653169;86;28173;-61
2022/08/18 06:13:42;;;;;;;17.10;14.98;;;;;;;23.73;72.70;98230.18;1652873;86;25936;-61
2022/08/18 06:16:54;;;;;;;18.00;15.90;;;;;;;23.85;72.23;98235.26;1653250;86;32285;-61
2022/08/18 06:19:50;;;;;;;19.40;15.00;;;;;;;23.86;72.74;98236.06;1652661;86;25617;-61
2022/08/18 06:22:40;;;;;;;18.15;15.43;;;;;;;23.98;71.55;98238.94;1653019;86;25654;-61
2022/08/18 06:25:39;;;;;;;17.90;14.50;;;;;;;24.10;70.77;98243.20;1653289;86;27044;-61
2022/08/18 06:28:14;;;;;;;16.27;14.38;;;;;;;24.22;70.42;98245.50;1597040;89;25785;-61
2022/08/18 06:31:06;;;;;;;18.62;15.53;;;;;;;24.30;69.67;98240.63;1601619;89;26212;-61
2022/08/18 06:33:53;;;;;;;21.20;16.02;;;;;;;24.40;70.16;98243.09;1601989;89;25551;-60
2022/08/18 06:36:34;;;;;;;17.20;15.28;;;;;;;24.68;69.10;98246.75;1602130;89;25759;-63
2022/08/18 06:39:17;;;;;;;17.45;14.78;;;;;;;24.85;68.39;98243.53;1601996;89;27330;-63
2022/08/18 06:41:48;;;;;;;18.32;14.98;;;;;;;25.04;69.03;98246.28;1601253;89;25969;-62
2022/08/18 06:44:28;;;;;;;16.50;14.80;;;;;;;25.30;67.03;98249.50;1601998;89;25764;-61
2022/08/18 06:47:06;;;;;;;17.10;15.20;;;;;;;25.24;66.55;98249.02;1601681;89;25521;-63
2022/08/18 06:49:50;;;;;;;16.02;14.03;;;;;;;25.43;67.08;98250.31;1548585;92;25694;-62
2022/08/18 06:52:27;;;;;;;15.40;13.43;;;;;;;25.67;66.61;98248.33;1547261;92;26793;-61
2022/08/18 06:55:02;;;;;;;15.53;12.98;;;;;;;25.71;64.96;98242.67;1548306;92;25534;-61
2022/08/18 06:57:36;;;;;;;16.02;13.50;;;;;;;25.83;64.35;98249.67;1547747;92;25736;-62
2022/08/18 07:00:20;;;;;;;17.35;13.72;;;;;;;25.83;63.93;98250.27;1541289;91;26282;-62
2022/08/18 07:02:52;;;;;;;15.63;13.28;;;;;;;25.84;64.15;98249.84;1560985;91;25706;-63
2022/08/18 07:05:28;;;;;;;14.83;13.03;;;;;;;25.93;64.35;98254.30;1563772;91;27718;-61
2022/08/18 07:08:12;;;;;;;19.10;13.85;;;;;;;26.17;64.72;98255.65;1575375;91;25601;-61
2022/08/18 07:10:46;;;;;;;14.60;13.13;;;;;;;26.50;63.73;98259.27;1551343;92;25578;-61
2022/08/18 07:13:25;;;;;;;14.15;12.58;;;;;;;26.75;63.07;98264.18;1572695;91;25598;-61
2022/08/18 07:15:55;;;;;;;15.65;13.25;;;;;;;26.87;63.30;98260.70;1575522;91;25674;-62
2022/08/18 07:18:26;;;;;;;14.85;13.05;;;;;;;27.03;62.17;98254.97;1573153;91;27408;-61
2022/08/18 07:21:00;;;;;;;17.70;13.72;;;;;;;27.16;61.22;98262.09;1575256;91;25582;-61
2022/08/18 07:23:37;;;;;;;12.85;10.93;;;;;;;26.98;61.46;98256.25;1575357;91;25581;-61
2022/08/18 07:26:16;;;;;;;15.68;11.88;;;;;;;27.07;60.04;98264.11;1561945;88;25593;-61
2022/08/18 07:28:49;;;;;;;13.60;12.25;;;;;;;27.12;59.15;98253.77;1682386;85;28879;-61
2022/08/18 07:31:42;;;;;;;17.05;12.93;;;;;;;27.35;59.79;98254.03;1674647;85;26829;-61
2022/08/18 07:34:35;;;;;;;14.75;12.35;;;;;;;27.29;58.61;98255.19;1674601;85;25966;-61
2022/08/18 07:37:20;;;;;;;14.78;12.75;;;;;;;27.34;59.25;98244.02;1670946;85;25671;-61
2022/08/18 07:40:10;;;;;;;14.85;12.75;;;;;;;27.55;58.28;98251.14;1674398;85;25479;-61
2022/08/18 07:42:53;;;;;;;13.43;12.03;;;;;;;27.65;57.17;98251.52;1674663;85;25602;-61
2022/08/18 07:45:45;;;;;;;15.63;12.68;;;;;;;27.78;56.73;98243.13;1674569;85;27437;-61
2022/08/18 07:48:32;;;;;;;12.88;11.68;;;;;;;27.91;56.32;98240.39;1674488;85;25718;-61
2022/08/18 07:51:35;;;;;;;15.18;11.80;;;;;;;28.04;56.67;98243.89;1674105;85;25675;-61
2022/08/18 07:54:10;;;;;;;14.18;11.70;;;;;;;28.30;55.55;98244.02;1658032;85;25637;-61
2022/08/18 07:56:48;;;;;;;13.10;11.73;;;;;;;28.59;55.57;98242.39;1653334;86;25788;-59
2022/08/18 07:59:40;;;;;;;13.22;11.80;;;;;;;28.93;54.93;98247.39;1651775;86;27557;-59
2022/08/18 08:02:37;;;;;;;14.65;11.97;;;;;;;29.21;53.70;98246.97;1651741;86;25805;-60
2022/08/18 08:05:18;;;;;;;15.15;11.73;;;;;;;29.41;53.70;98250.97;1651723;86;25690;-62
2022/08/18 08:07:55;;;;;;;12.23;11.08;;;;;;;29.82;53.14;98251.09;1651844;86;26039;-60
2022/08/18 08:10:29;;;;;;;11.83;10.78;;;;;;;29.74;51.46;98242.07;1650924;85;25843;-60
2022/08/18 08:13:19;;;;;;;11.70;10.28;;;;;;;29.74;52.01;98241.45;1652081;86;27935;-62
2022/08/18 08:16:23;;;;;;;11.00;9.78;;;;;;;29.70;49.93;98245.64;1651938;86;25809;-59
2022/08/18 08:19:30;;;;;;;12.53;10.23;;;;;;;29.62;50.10;98245.09;1652775;86;25429;-61
2022/08/18 08:22:07;;;;;;;12.10;10.03;;;;;;;29.76;50.19;98255.12;1653208;86;25605;-60
2022/08/18 08:24:48;;;;;;;11.48;10.35;;;;;;;29.66;50.60;98245.76;1652153;86;25670;-60
2022/08/18 08:27:20;;;;;;;11.22;10.10;;;;;;;29.80;50.95;98250.13;1651900;86;28280;-60
2022/08/18 08:30:04;;;;;;;10.75;9.65;;;;;;;29.99;50.28;98251.72;1652618;86;25638;-60
2022/08/18 08:32:41;;;;;;;11.03;9.25;;;;;;;30.09;50.11;98253.36;1652673;86;25643;-60
2022/08/18 08:35:16;;;;;;;10.78;9.65;;;;;;;30.39;48.31;98252.52;1652726;86;26245;-61
2022/08/18 08:37:57;;;;;;;9.75;8.10;;;;;;;30.35;47.76;98256.72;1650694;86;25509;-60
2022/08/18 08:40:37;;;;;;;10.35;8.08;;;;;;;30.36;47.29;98259.08;1652571;86;27311;-60
2022/08/18 08:43:11;;;;;;;11.15;8.50;;;;;;;30.42;47.76;98264.31;1649366;86;26081;-61
2022/08/18 08:45:43;;;;;;;13.65;8.90;;;;;;;30.34;47.05;98272.11;1652356;86;25528;-61
2022/08/18 08:48:20;;;;;;;10.08;8.88;;;;;;;30.29;47.90;98270.05;1652748;86;25775;-59
2022/08/18 08:50:55;;;;;;;10.82;9.68;;;;;;;30.22;48.21;98273.11;1653001;86;25617;-60
2022/08/18 08:53:36;;;;;;;8.75;7.83;;;;;;;30.30;48.44;98275.05;1652253;86;27493;-61
2022/08/18 08:56:16;;;;;;;9.70;8.53;;;;;;;30.63;46.15;98271.05;1652451;86;25698;-60
2022/08/18 08:58:49;;;;;;;10.30;8.60;;;;;;;30.96;46.92;98269.83;1653049;86;25630;-61
2022/08/18 09:01:48;;;;;;;12.40;8.63;;;;;;;31.35;46.28;98276.60;1653086;86;25541;-59
2022/08/18 09:04:38;;;;;;;9.60;8.60;;;;;;;31.50;44.78;98277.63;1653320;86;25623;-59
2022/08/18 09:07:48;;;;;;;8.50;7.35;;;;;;;31.28;45.85;98281.30;1652964;86;28196;-59
2022/08/18 09:10:39;;;;;;;8.68;7.75;;;;;;;31.46;44.92;98277.00;1653040;86;25896;-60
2022/08/18 09:13:39;;;;;;;9.08;7.90;;;;;;;31.79;43.33;98277.84;1652785;86;25597;-59
2022/08/18 09:16:45;;;;;;;11.65;8.00;;;;;;;31.85;43.31;98278.63;1653262;86;25653;-61
2022/08/18 09:19:33;;;;;;;10.05;7.45;;;;;;;31.91;43.18;98271.87;1653276;86;25873;-59
2022/08/18 09:22:47;;;;;;;7.85;7.12;;;;;;;32.11;43.13;98276.94;1655682;85;27599;-61
2022/08/18 09:25:40;;;;;;;9.45;8.05;;;;;;;32.30;42.33;98262.15;1652881;86;26009;-61
2022/08/18 09:28:12;;;;;;;9.60;8.13;;;;;;;32.76;41.73;98263.36;1646189;87;25771;-61
2022/08/18 09:31:05;;;;;;;11.90;7.10;;;;;;;32.77;42.55;98260.67;1643086;87;25691;-61
2022/08/18 09:33:49;;;;;;;13.62;7.50;;;;;;;33.16;41.17;98263.70;1641421;87;25570;-60
2022/08/18 09:36:32;;;;;;;8.25;6.75;;;;;;;33.21;40.82;98263.69;1643612;87;27517;-61
2022/08/18 09:42:30;;;;;;;8.13;6.90;;;;;;;33.57;37.79;98266.03;1643390;87;25619;-61
2022/08/18 09:45:01;;;;;;;11.95;6.80;;;;;;;33.76;36.97;98263.90;1643451;87;26197;-62
2022/08/18 09:47:33;;;;;;;7.37;6.20;;;;;;;33.69;37.90;98264.24;1643790;87;25708;-63
2022/08/18 09:50:15;;;;;;;7.78;6.80;;;;;;;34.21;37.46;98261.83;1643868;87;27379;-63
2022/08/18 09:52:46;;;;;;;7.83;6.50;;;;;;;34.49;37.91;98258.11;1643502;87;25555;-61
2022/08/18 09:55:26;;;;;;;8.03;6.90;;;;;;;34.61;36.68;98249.13;1643547;87;25731;-61
2022/08/18 09:58:28;;;;;;;6.78;6.08;;;;;;;34.50;36.98;98243.23;1643537;87;25713;-61
2022/08/18 10:01:31;;;;;;;8.75;6.17;;;;;;;34.73;34.48;98245.86;1641731;87;25866;-62
2022/08/18 10:04:26;;;;;;;8.43;6.30;;;;;;;34.93;35.09;98235.83;1666608;86;27287;-62
2022/08/18 10:06:54;;;;;;;6.72;5.70;;;;;;;34.89;34.46;98241.73;1666848;86;25851;-60
2022/08/18 10:09:47;;;;;;;6.75;5.85;;;;;;;35.11;34.33;98231.96;1666810;86;25486;-61
2022/08/18 10:12:51;;;;;;;7.47;6.20;;;;;;;34.94;34.37;98228.08;1666576;86;26265;-61
2022/08/18 10:15:40;;;;;;;6.75;6.15;;;;;;;34.54;34.79;98231.80;1666724;86;25712;-61
2022/08/18 10:18:27;;;;;;;6.20;5.60;;;;;;;34.13;34.71;98219.56;1665993;86;28366;-61
2022/08/18 10:21:27;;;;;;;25.68;6.75;;;;;;;34.18;35.41;98218.11;1666259;86;25667;-60
2022/08/18 10:23:57;;;;;;;6.78;6.08;;;;;;;34.15;35.40;98217.66;1665847;86;25521;-61
2022/08/18 10:26:37;;;;;;;20.12;6.45;;;;;;;34.57;34.98;98215.83;1666959;86;25775;-61
2022/08/18 10:29:10;;;;;;;6.70;6.10;;;;;;;34.79;34.18;98209.75;1663200;86;25702;-61
2022/08/18 10:32:00;;;;;;;11.60;5.95;;;;;;;34.85;34.05;98203.38;1666519;86;27373;-60
2022/08/18 10:34:48;;;;;;;7.42;6.17;;;;;;;35.26;33.66;98193.50;1666904;85;25514;-58
2022/08/18 10:37:43;;;;;;;8.70;6.50;;;;;;;35.18;33.43;98200.88;1665981;86;25502;-58
2022/08/18 10:40:18;;;;;;;7.60;6.40;;;;;;;35.20;33.74;98197.56;1666820;86;26328;-58
2022/08/18 10:43:16;;;;;;;7.40;5.80;;;;;;;35.21;33.21;98188.53;1666677;86;25671;-59
2022/08/18 10:45:50;;;;;;;8.73;6.33;;;;;;;35.69;33.14;98182.28;1666719;86;28248;-60
2022/08/18 10:48:24;;;;;;;8.73;5.92;;;;;;;35.90;32.05;98184.48;1666327;86;25953;-60
2022/08/18 10:51:07;;;;;;;6.62;5.75;;;;;;;35.63;31.89;98189.31;1666551;86;25681;-60
2022/08/18 10:54:19;;;;;;;7.70;5.97;;;;;;;35.69;32.16;98182.91;1666593;86;25495;-62
2022/08/18 10:57:21;;;;;;;7.15;6.10;;;;;;;35.85;32.78;98188.05;1606065;88;25651;-61
2022/08/18 11:00:16;;;;;;;7.80;6.28;;;;;;;35.93;32.63;98184.75;1606042;89;28311;-60
2022/08/18 11:03:17;;;;;;;6.95;6.22;;;;;;;35.49;33.07;98184.48;1605763;89;25684;-61
2022/08/18 11:05:44;;;;;;;8.30;5.92;;;;;;;35.61;34.36;98174.80;1605504;89;25684;-61
2022/08/18 11:08:16;;;;;;;7.25;5.80;;;;;;;35.83;33.21;98173.51;1606116;89;25758;-61
2022/08/18 11:10:49;;;;;;;6.08;5.53;;;;;;;35.93;32.76;98174.78;1606017;89;25490;-61
2022/08/18 11:13:41;;;;;;;9.05;6.10;;;;;;;36.07;31.82;98171.69;1605901;89;27378;-61
2022/08/18 11:16:32;;;;;;;7.85;6.35;;;;;;;35.93;32.03;98169.87;1605986;89;25858;-60
2022/08/18 11:19:12;;;;;;;7.95;6.10;;;;;;;35.58;32.50;98160.77;1605350;89;25572;-60
2022/08/18 11:21:46;;;;;;;13.72;6.10;;;;;;;35.32;33.41;98170.02;1605738;89;26001;-60
2022/08/18 11:24:20;;;;;;;6.15;5.62;;;;;;;35.34;33.31;98155.42;1606076;89;25550;-62
2022/08/18 11:26:55;;;;;;;15.80;6.12;;;;;;;35.58;32.87;98158.70;1605900;89;28021;-61
2022/08/18 11:29:40;;;;;;;7.97;5.67;;;;;;;35.89;32.00;98153.64;1604391;89;25755;-61
2022/08/18 11:32:21;;;;;;;6.28;5.70;;;;;;;35.76;32.29;98154.80;1610293;89;25709;-62
2022/08/18 11:35:07;;;;;;;8.35;5.87;;;;;;;35.98;31.62;98151.26;1659769;86;25714;-61
2022/08/18 11:37:42;;;;;;;5.62;5.12;;;;;;;36.04;32.05;98144.97;1669039;86;25614;-61
2022/08/18 11:40:26;;;;;;;7.53;5.47;;;;;;;36.23;31.45;98130.41;1669590;85;29511;-62
2022/08/18 11:43:25;;;;;;;6.75;5.60;;;;;;;36.61;31.09;98132.63;1669674;85;25663;-58
2022/08/18 11:46:00;;;;;;;6.83;5.83;;;;;;;36.86;29.99;98135.15;1670092;86;25683;-60
2022/08/18 11:48:38;;;;;;;7.15;5.22;;;;;;;36.96;29.97;98142.25;1669707;86;26205;-60
2022/08/18 11:51:31;;;;;;;6.12;5.20;;;;;;;36.93;30.41;98143.90;1668847;85;25610;-60
2022/08/18 11:54:15;;;;;;;5.95;5.37;;;;;;;36.72;29.61;98146.89;1669974;86;27436;-60
2022/08/18 11:56:43;;;;;;;6.75;5.33;;;;;;;36.84;30.16;98134.23;1669468;86;25682;-60
2022/08/18 11:59:34;;;;;;;8.15;5.50;;;;;;;36.97;28.84;98132.38;1669590;86;25468;-61
2022/08/18 12:02:01;;;;;;;6.45;5.28;;;;;;;36.47;29.58;98128.66;1669709;86;25658;-60
2022/08/18 12:04:33;;;;;;;5.30;4.78;;;;;;;36.15;29.41;98134.32;1669529;85;25448;-60
2022/08/18 12:07:15;;;;;;;8.25;5.12;;;;;;;36.06;29.46;98135.25;1668974;86;27507;-62
2022/08/18 12:10:11;;;;;;;5.33;4.83;;;;;;;36.19;28.93;98126.95;1669883;85;25706;-64
2022/08/18 12:12:48;;;;;;;6.20;4.90;;;;;;;36.33;29.80;98121.80;1669899;85;25642;-65
2022/08/18 12:15:26;;;;;;;6.60;5.17;;;;;;;36.70;29.12;98119.47;1669749;85;25459;-67
2022/08/18 12:17:52;;;;;;;11.35;5.03;;;;;;;36.57;29.21;98117.03;1669663;86;25667;-66
2022/08/18 12:20:21;;;;;;;5.37;4.97;;;;;;;36.33;28.84;98114.66;1669750;85;27650;-65